Time,TemperatureF,DewpointF,PressureIn,WindDirection,WindDirectionDegrees,WindSpeedMPH,WindSpeedGustMPH,Humidity,HourlyPrecipIn,Conditions,Clouds,dailyrainin,SoftwareType,DateUTC
2014-12-22 00:06:00,21.7,21.5,30.27,West,270,0.0,-999.0,99,-99.99,,,0.00,Acu-Link.com,2014-12-22 05:06:00,
2014-12-22 00:22:00,21.0,20.8,30.27,West,270,0.0,-999.0,99,-99.99,,,0.00,Acu-Link.com,2014-12-22 05:22:00,
2014-12-22 00:37:00,20.5,20.3,30.26,NNW,337,0.0,-999.0,99,-99.99,,,0.00,Acu-Link.com,2014-12-22 05:37:00,
2014-12-22 00:52:00,21.4,21.2,30.25,WNW,292,0.0,-999.0,99,-99.99,,,0.00,Acu-Link.com,2014-12-22 05:52:00,
2014-12-22 01:08:00,21.2,21.0,30.26,WSW,247,0.0,-999.0,99,-99.99,,,0.00,Acu-Link.com,2014-12-22 06:08:00,
2014-12-22 01:23:00,20.7,20.5,30.26,West,270,0.0,-999.0,99,-99.99,,,0.00,Acu-Link.com,2014-12-22 06:23:00,
2014-12-22 01:38:00,19.6,19.4,30.27,West,270,0.0,-999.0,99,-99.99,,,0.00,Acu-Link.com,2014-12-22 06:38:00,
2014-12-22 01:54:00,20.3,20.1,30.27,NE,45,0.0,-999.0,99,-99.99,,,0.00,Acu-Link.com,2014-12-22 06:54:00,
2014-12-22 02:09:00,20.8,20.6,30.28,NE,45,0.0,-999.0,99,-99.99,,,0.00,Acu-Link.com,2014-12-22 07:09:00,
2014-12-22 02:24:00,19.8,19.6,30.28,West,270,0.0,-999.0,99,-99.99,,,0.00,Acu-Link.com,2014-12-22 07:24:00,
2014-12-22 02:39:00,19.9,19.7,30.28,West,270,0.0,-999.0,99,-99.99,,,0.00,Acu-Link.com,2014-12-22 07:39:00,
2014-12-22 02:54:00,19.6,19.4,30.28,NE,45,0.0,-999.0,99,-99.99,,,0.00,Acu-Link.com,2014-12-22 07:54:00,
2014-12-22 03:10:00,18.3,18.1,30.28,West,270,0.0,-999.0,99,-99.99,,,0.00,Acu-Link.com,2014-12-22 08:10:00,
2014-12-22 03:25:00,19.0,18.8,30.27,West,270,0.0,-999.0,99,-99.99,,,0.00,Acu-Link.com,2014-12-22 08:25:00,
2014-12-22 03:40:00,18.5,18.3,30.27,NE,45,0.0,-999.0,99,-99.99,,,0.00,Acu-Link.com,2014-12-22 08:40:00,
2014-12-22 03:56:00,19.4,19.2,30.26,NNE,22,0.0,-999.0,99,-99.99,,,0.00,Acu-Link.com,2014-12-22 08:56:00,
2014-12-22 04:11:00,19.0,18.8,30.25,NW,315,0.0,-999.0,99,-99.99,,,0.00,Acu-Link.com,2014-12-22 09:11:00,
2014-12-22 04:26:00,18.5,18.3,30.25,West,270,0.0,-999.0,99,-99.99,,,0.00,Acu-Link.com,2014-12-22 09:26:00,
2014-12-22 04:42:00,18.5,18.3,30.24,NE,45,0.0,-999.0,99,-99.99,,,0.00,Acu-Link.com,2014-12-22 09:42:00,
2014-12-22 04:57:00,18.9,18.7,30.24,NE,45,0.0,-999.0,99,-99.99,,,0.00,Acu-Link.com,2014-12-22 09:57:00,
2014-12-22 05:12:00,19.0,18.8,30.23,SE,135,0.0,-999.0,99,-99.99,,,0.00,Acu-Link.com,2014-12-22 10:12:00,
2014-12-22 05:27:00,18.1,17.9,30.24,SSE,157,0.0,-999.0,99,-99.99,,,0.00,Acu-Link.com,2014-12-22 10:27:00,
2014-12-22 05:43:00,17.6,17.4,30.25,WNW,292,0.0,-999.0,99,-99.99,,,0.00,Acu-Link.com,2014-12-22 10:43:00,
2014-12-22 05:58:00,18.1,17.9,30.25,NNE,22,0.0,-999.0,99,-99.99,,,0.00,Acu-Link.com,2014-12-22 10:58:00,
2014-12-22 06:13:00,19.2,19.0,30.25,NE,45,2.2,-999.0,99,-99.99,,,0.00,Acu-Link.com,2014-12-22 11:13:00,
2014-12-22 06:29:00,19.0,18.8,30.25,NNE,22,0.0,-999.0,99,-99.99,,,0.00,Acu-Link.com,2014-12-22 11:29:00,
2014-12-22 06:44:00,18.0,17.8,30.26,West,270,0.0,-999.0,99,-99.99,,,0.00,Acu-Link.com,2014-12-22 11:44:00,
2014-12-22 06:59:00,18.3,18.1,30.26,WNW,292,0.0,-999.0,99,-99.99,,,0.00,Acu-Link.com,2014-12-22 11:59:00,
2014-12-22 07:15:00,18.7,18.5,30.26,WNW,292,0.0,-999.0,99,-99.99,,,0.00,Acu-Link.com,2014-12-22 12:15:00,
2014-12-22 07:30:00,18.7,18.5,30.26,West,270,0.0,-999.0,99,-99.99,,,0.00,Acu-Link.com,2014-12-22 12:30:00,
2014-12-22 07:45:00,18.3,18.1,30.25,ENE,67,0.0,-999.0,99,-99.99,,,0.00,Acu-Link.com,2014-12-22 12:45:00,
2014-12-22 08:01:00,18.9,18.7,30.25,West,270,0.0,-999.0,99,-99.99,,,0.00,Acu-Link.com,2014-12-22 13:01:00,
2014-12-22 08:16:00,21.7,21.5,30.25,WSW,247,0.0,-999.0,99,-99.99,,,0.00,Acu-Link.com,2014-12-22 13:16:00,
2014-12-22 08:31:00,24.6,24.4,30.25,NNE,22,0.0,-999.0,99,-99.99,,,0.00,Acu-Link.com,2014-12-22 13:31:00,
2014-12-22 08:46:00,26.1,25.9,30.24,South,180,0.0,-999.0,99,-99.99,,,0.00,Acu-Link.com,2014-12-22 13:46:00,
2014-12-22 09:02:00,26.8,26.6,30.25,East,90,3.7,-999.0,99,-99.99,,,0.00,Acu-Link.com,2014-12-22 14:02:00,
2014-12-22 09:17:00,28.4,27.4,30.23,ENE,67,4.7,-999.0,96,-99.99,,,0.00,Acu-Link.com,2014-12-22 14:17:00,
2014-12-22 09:32:00,29.8,28.5,30.22,ESE,112,6.3,-999.0,95,-99.99,,,0.00,Acu-Link.com,2014-12-22 14:32:00,
2014-12-22 09:47:00,32.4,30.6,30.23,East,90,4.7,-999.0,93,-99.99,,,0.00,Acu-Link.com,2014-12-22 14:47:00,
2014-12-22 10:03:00,34.5,31.6,30.23,East,90,9.9,-999.0,89,-99.99,,,0.00,Acu-Link.com,2014-12-22 15:03:00,
2014-12-22 10:18:00,35.4,31.6,30.21,NE,45,6.3,-999.0,86,-99.99,,,0.00,Acu-Link.com,2014-12-22 15:18:00,
2014-12-22 10:33:00,34.5,30.8,30.22,ESE,112,4.2,-999.0,86,-99.99,,,0.00,Acu-Link.com,2014-12-22 15:33:00,
2014-12-22 10:48:00,34.2,30.7,30.23,East,90,3.7,-999.0,87,-99.99,,,0.00,Acu-Link.com,2014-12-22 15:48:00,
2014-12-22 11:03:00,34.5,31.6,30.22,ESE,112,6.8,-999.0,89,-99.99,,,0.00,Acu-Link.com,2014-12-22 16:03:00,
2014-12-22 11:19:00,34.9,31.4,30.21,ESE,112,5.3,-999.0,87,-99.99,,,0.00,Acu-Link.com,2014-12-22 16:19:00,
2014-12-22 11:35:00,35.6,31.8,30.20,ENE,67,2.7,-999.0,86,-99.99,,,0.00,Acu-Link.com,2014-12-22 16:35:00,
2014-12-22 11:50:00,36.1,32.0,30.20,ESE,112,2.7,-999.0,85,-99.99,,,0.00,Acu-Link.com,2014-12-22 16:50:00,